Time;durP1;ratioP1;P1;durP2;ratioP2;P2;SDS_P1;SDS_P2;PMS_P1;PMS_P2;Temp;Humidity;BMP_temperature;BMP_pressure;BME280_temperature;BME280_humidity;BME280_pressure;Samples;Min_cycle;Max_cycle;Signal;HPM_P1;HPM_P2
2022/06/24 00:01:13;;;;;;;18.95;4.15;;;;;;;;;;5024972;28;20036;-76
2022/06/24 00:03:45;;;;;;;17.77;3.40;;;;;;;;;;5025350;28;20063;-75
2022/06/24 00:06:18;;;;;;;17.63;3.63;;;;;;;;;;5025399;28;20147;-74
2022/06/24 00:08:50;;;;;;;15.93;3.10;;;;;;;;;;5024548;28;20442;-78
2022/06/24 00:11:23;;;;;;;13.63;3.30;;;;;;;;;;5005389;28;20037;-81
2022/06/24 00:13:50;;;;;;;16.40;3.20;;;;;;;;;;5021583;28;20140;-78
2022/06/24 00:16:18;;;;;;;15.77;3.30;;;;;;;;;;5008782;28;20025;-78
2022/06/24 00:18:46;;;;;;;16.15;3.15;;;;;;;;;;5024983;28;20017;-75
2022/06/24 00:21:16;;;;;;;16.15;2.67;;;;;;;;;;5005340;28;20151;-75
2022/06/24 00:23:43;;;;;;;16.67;2.90;;;;;;;;;;5026216;28;20350;-76
2022/06/24 00:26:10;;;;;;;15.98;3.20;;;;;;;;;;5002322;28;20096;-75
2022/06/24 00:28:37;;;;;;;15.20;3.20;;;;;;;;;;5027947;28;20029;-76
2022/06/24 00:31:05;;;;;;;15.38;3.20;;;;;;;;;;5022743;28;20032;-76
2022/06/24 00:33:45;;;;;;;14.95;2.92;;;;;;;;;;5014344;28;20600;-81
2022/06/24 00:36:13;;;;;;;19.40;3.10;;;;;;;;;;5026233;28;20028;-76
2022/06/24 00:38:42;;;;;;;17.23;3.30;;;;;;;;;;4994758;28;20162;-80
2022/06/24 00:41:11;;;;;;;18.92;3.20;;;;;;;;;;5033352;28;20033;-76
2022/06/24 00:43:44;;;;;;;14.95;3.10;;;;;;;;;;5012884;28;20365;-75
2022/06/24 00:46:19;;;;;;;19.92;3.30;;;;;;;;;;5029198;28;20769;-75
2022/06/24 00:48:51;;;;;;;16.30;3.30;;;;;;;;;;5031545;28;20024;-77
2022/06/24 00:51:20;;;;;;;15.45;3.10;;;;;;;;;;5029652;28;20812;-78
2022/06/24 00:53:51;;;;;;;12.60;2.42;;;;;;;;;;5031438;28;20475;-79
2022/06/24 00:56:22;;;;;;;18.90;3.20;;;;;;;;;;5016627;28;20480;-80
2022/06/24 00:58:58;;;;;;;13.82;3.05;;;;;;;;;;5012320;28;20025;-75
2022/06/24 01:01:29;;;;;;;14.13;2.97;;;;;;;;;;5031393;28;20032;-78
2022/06/24 01:03:57;;;;;;;16.75;3.28;;;;;;;;;;5009010;28;20037;-80
2022/06/24 01:06:24;;;;;;;16.63;3.22;;;;;;;;;;5012646;28;20478;-78
2022/06/24 01:08:50;;;;;;;14.82;3.00;;;;;;;;;;5031229;28;20025;-79
2022/06/24 01:11:26;;;;;;;16.20;2.92;;;;;;;;;;5030431;28;20437;-78
2022/06/24 01:13:54;;;;;;;19.02;3.00;;;;;;;;;;5034234;28;20021;-79
2022/06/24 01:16:22;;;;;;;16.05;3.00;;;;;;;;;;5013575;28;20243;-77
2022/06/24 01:18:55;;;;;;;14.95;3.10;;;;;;;;;;5012041;28;20400;-78
2022/06/24 01:21:40;;;;;;;15.30;3.45;;;;;;;;;;5025174;28;20487;-76
2022/06/24 01:24:11;;;;;;;17.17;3.22;;;;;;;;;;5014846;28;20795;-75
2022/06/24 01:26:38;;;;;;;13.32;2.55;;;;;;;;;;5025176;28;20029;-79
2022/06/24 01:29:04;;;;;;;17.38;3.17;;;;;;;;;;5005366;28;20304;-75
2022/06/24 01:31:31;;;;;;;15.32;2.83;;;;;;;;;;5028440;28;20083;-75
2022/06/24 01:33:57;;;;;;;15.02;2.80;;;;;;;;;;5044286;28;20418;-75
2022/06/24 01:36:23;;;;;;;17.00;3.38;;;;;;;;;;5030120;28;20074;-77
2022/06/24 01:38:50;;;;;;;17.25;3.00;;;;;;;;;;5031336;28;20048;-77
2022/06/24 01:41:18;;;;;;;15.93;3.10;;;;;;;;;;5045122;28;20037;-74
2022/06/24 01:43:44;;;;;;;12.80;2.92;;;;;;;;;;5027991;28;20036;-78
2022/06/24 01:46:15;;;;;;;17.77;3.17;;;;;;;;;;5038106;28;20974;-77
2022/06/24 01:48:42;;;;;;;18.52;3.53;;;;;;;;;;5045363;28;20032;-77
2022/06/24 01:51:10;;;;;;;18.17;3.28;;;;;;;;;;5039971;28;20044;-76
2022/06/24 01:53:36;;;;;;;17.52;3.47;;;;;;;;;;5048410;28;20039;-76
2022/06/24 01:56:05;;;;;;;19.40;3.38;;;;;;;;;;5022969;28;20269;-76
2022/06/24 01:58:33;;;;;;;16.60;3.20;;;;;;;;;;5041955;28;20029;-76
2022/06/24 02:01:01;;;;;;;15.48;3.15;;;;;;;;;;5026351;28;20166;-74
2022/06/24 02:03:30;;;;;;;16.30;3.42;;;;;;;;;;5029931;28;20483;-74
2022/06/24 02:06:01;;;;;;;18.33;3.40;;;;;;;;;;5041177;28;20058;-74
2022/06/24 02:08:28;;;;;;;17.27;3.47;;;;;;;;;;5027763;28;20368;-76
2022/06/24 02:13:42;;;;;;;17.55;3.22;;;;;;;;;;5047803;28;20855;-78
2022/06/24 02:16:09;;;;;;;20.17;3.70;;;;;;;;;;5025709;28;20395;-74
2022/06/24 02:18:37;;;;;;;16.77;3.10;;;;;;;;;;5043058;28;20029;-74
2022/06/24 02:21:06;;;;;;;15.88;3.00;;;;;;;;;;5042320;28;20596;-74
2022/06/24 02:23:33;;;;;;;18.17;3.30;;;;;;;;;;5031020;28;20478;-76
2022/06/24 02:26:01;;;;;;;12.90;3.25;;;;;;;;;;5044402;28;20144;-75
2022/06/24 02:28:28;;;;;;;18.35;3.30;;;;;;;;;;5044152;28;20266;-79
2022/06/24 02:30:58;;;;;;;21.67;3.72;;;;;;;;;;5029027;28;20128;-79
2022/06/24 02:33:26;;;;;;;17.52;3.58;;;;;;;;;;5053104;28;20042;-77
2022/06/24 02:35:54;;;;;;;18.85;4.13;;;;;;;;;;5035202;28;20594;-74
2022/06/24 02:38:22;;;;;;;19.13;3.55;;;;;;;;;;5048697;28;20562;-74
2022/06/24 02:40:49;;;;;;;22.38;3.88;;;;;;;;;;5036581;28;20035;-75
2022/06/24 02:43:23;;;;;;;16.10;3.60;;;;;;;;;;5038956;28;20028;-74
2022/06/24 02:45:54;;;;;;;16.17;3.10;;;;;;;;;;5045033;28;20557;-74
2022/06/24 02:48:22;;;;;;;19.27;3.47;;;;;;;;;;5045874;28;20099;-76
2022/06/24 02:50:57;;;;;;;14.18;3.33;;;;;;;;;;5049889;28;20143;-74
2022/06/24 02:53:27;;;;;;;22.08;3.78;;;;;;;;;;5033316;28;20375;-76
2022/06/24 02:55:54;;;;;;;15.00;3.03;;;;;;;;;;5030432;28;20035;-75
2022/06/24 02:58:22;;;;;;;16.63;3.80;;;;;;;;;;5033760;28;20468;-77
2022/06/24 03:00:48;;;;;;;16.55;3.63;;;;;;;;;;5033103;28;20471;-74
2022/06/24 03:03:15;;;;;;;16.20;3.20;;;;;;;;;;5032954;28;20090;-75
2022/06/24 03:05:41;;;;;;;15.48;3.33;;;;;;;;;;5035030;28;20752;-74
2022/06/24 03:08:08;;;;;;;17.20;3.58;;;;;;;;;;5031061;28;20510;-75
2022/06/24 03:10:34;;;;;;;16.77;3.75;;;;;;;;;;5050216;28;20044;-75
2022/06/24 03:13:01;;;;;;;20.65;3.78;;;;;;;;;;5046262;28;20028;-74
2022/06/24 03:15:28;;;;;;;15.30;3.05;;;;;;;;;;5048593;28;20024;-75
2022/06/24 03:17:54;;;;;;;12.70;3.25;;;;;;;;;;5043432;28;20308;-74
2022/06/24 03:20:20;;;;;;;;;;;;;;;;;;5038578;28;20513;-74
2022/06/24 03:22:46;;;;;;;21.05;3.55;;;;;;;;;;5048323;28;19912;-76
2022/06/24 03:25:12;;;;;;;18.27;3.40;;;;;;;;;;5047602;28;20024;-76
2022/06/24 03:27:39;;;;;;;16.42;3.35;;;;;;;;;;5047985;28;20036;-76
2022/06/24 03:30:07;;;;;;;17.30;3.38;;;;;;;;;;5029753;28;20033;-75
2022/06/24 03:32:33;;;;;;;16.00;3.50;;;;;;;;;;5048573;28;20124;-74
2022/06/24 03:35:01;;;;;;;17.70;3.80;;;;;;;;;;5050577;28;20032;-78
2022/06/24 03:37:28;;;;;;;16.88;3.67;;;;;;;;;;5045414;28;20031;-75
2022/06/24 03:39:55;;;;;;;19.42;3.38;;;;;;;;;;5047637;28;20551;-76
2022/06/24 03:42:21;;;;;;;16.48;3.65;;;;;;;;;;5030360;28;20582;-75
2022/06/24 03:44:47;;;;;;;18.60;3.30;;;;;;;;;;5047541;28;20032;-75
2022/06/24 03:47:13;;;;;;;18.40;3.40;;;;;;;;;;5045391;28;20107;-74
2022/06/24 03:49:39;;;;;;;;;;;;;;;;;;5049347;28;20033;-75
2022/06/24 03:52:05;;;;;;;19.38;3.53;;;;;;;;;;5044438;28;19928;-74
2022/06/24 03:54:34;;;;;;;17.25;3.70;;;;;;;;;;5046048;28;20028;-77
2022/06/24 03:57:02;;;;;;;15.10;3.22;;;;;;;;;;5031652;28;20151;-81
2022/06/24 03:59:29;;;;;;;16.38;3.63;;;;;;;;;;5036399;28;20028;-79
2022/06/24 04:01:56;;;;;;;16.65;3.75;;;;;;;;;;5029001;28;20041;-78
2022/06/24 04:04:23;;;;;;;19.02;4.03;;;;;;;;;;5035687;28;20028;-77
2022/06/24 04:06:54;;;;;;;15.73;3.30;;;;;;;;;;5030173;28;20153;-77
2022/06/24 04:09:22;;;;;;;18.35;3.55;;;;;;;;;;5030662;28;20056;-79
2022/06/24 04:11:50;;;;;;;14.02;3.20;;;;;;;;;;5029641;28;20359;-75
2022/06/24 04:17:05;;;;;;;15.68;3.60;;;;;;;;;;5043108;28;20035;-80
2022/06/24 04:19:36;;;;;;;20.38;3.72;;;;;;;;;;5043315;28;20040;-79
2022/06/24 04:22:07;;;;;;;18.90;4.22;;;;;;;;;;5029530;28;20032;-78
2022/06/24 04:24:36;;;;;;;17.95;3.97;;;;;;;;;;5028837;28;20024;-79
2022/06/24 04:27:03;;;;;;;17.30;3.35;;;;;;;;;;5044789;28;20032;-79
2022/06/24 04:29:31;;;;;;;14.25;3.15;;;;;;;;;;5031303;28;20118;-80
2022/06/24 04:31:58;;;;;;;21.58;3.85;;;;;;;;;;5047287;28;20391;-80
2022/06/24 04:34:26;;;;;;;16.00;3.75;;;;;;;;;;5047525;28;20380;-79
2022/06/24 04:36:53;;;;;;;20.50;4.25;;;;;;;;;;5038971;28;20041;-77
2022/06/24 04:39:21;;;;;;;20.38;5.00;;;;;;;;;;5047792;28;20463;-75
2022/06/24 04:41:50;;;;;;;22.00;4.38;;;;;;;;;;5023374;28;20458;-74
2022/06/24 04:44:18;;;;;;;21.85;5.20;;;;;;;;;;5026618;28;20105;-79
2022/06/24 04:46:48;;;;;;;20.10;4.55;;;;;;;;;;5045820;28;20510;-76
2022/06/24 04:49:15;;;;;;;17.38;4.30;;;;;;;;;;5041508;28;20462;-76
2022/06/24 04:51:43;;;;;;;18.58;4.40;;;;;;;;;;5020828;28;20045;-76
2022/06/24 04:54:10;;;;;;;18.27;4.55;;;;;;;;;;5035274;28;20027;-75
2022/06/24 04:56:36;;;;;;;17.77;3.88;;;;;;;;;;5015899;28;20704;-76
2022/06/24 04:59:02;;;;;;;17.98;4.03;;;;;;;;;;5013877;28;20048;-76
2022/06/24 05:01:29;;;;;;;20.60;4.70;;;;;;;;;;5016878;28;20059;-79
2022/06/24 05:03:55;;;;;;;19.55;4.20;;;;;;;;;;5012173;28;20037;-80
2022/06/24 05:06:22;;;;;;;20.90;4.53;;;;;;;;;;5019413;28;20068;-79
2022/06/24 05:08:48;;;;;;;20.42;4.68;;;;;;;;;;5014365;28;20454;-75
2022/06/24 05:11:14;;;;;;;21.10;4.30;;;;;;;;;;5010195;28;20093;-80
2022/06/24 05:13:40;;;;;;;25.83;4.68;;;;;;;;;;5039004;28;20059;-79
2022/06/24 05:16:06;;;;;;;17.48;4.60;;;;;;;;;;5014196;28;20489;-80
2022/06/24 05:18:33;;;;;;;21.48;4.40;;;;;;;;;;5018171;28;20286;-80
2022/06/24 05:20:59;;;;;;;18.92;4.78;;;;;;;;;;5012334;28;20040;-80
2022/06/24 05:23:26;;;;;;;19.08;4.25;;;;;;;;;;5032012;28;20217;-80
2022/06/24 05:25:52;;;;;;;16.10;3.90;;;;;;;;;;5018615;28;20044;-75
2022/06/24 05:28:18;;;;;;;19.17;3.67;;;;;;;;;;5019906;28;20547;-75
2022/06/24 05:30:45;;;;;;;17.67;4.10;;;;;;;;;;5041360;28;20032;-76
2022/06/24 05:33:11;;;;;;;18.08;3.58;;;;;;;;;;5017446;28;21097;-79
2022/06/24 05:35:37;;;;;;;19.98;3.90;;;;;;;;;;5041545;28;20070;-74
2022/06/24 05:38:03;;;;;;;22.75;4.28;;;;;;;;;;5038875;28;20405;-79
2022/06/24 05:40:29;;;;;;;20.17;3.80;;;;;;;;;;5040736;28;20036;-75
2022/06/24 05:42:55;;;;;;;20.23;4.05;;;;;;;;;;5021758;28;20550;-79
2022/06/24 05:45:21;;;;;;;19.85;4.05;;;;;;;;;;5045338;28;20024;-76
2022/06/24 05:47:48;;;;;;;18.13;3.60;;;;;;;;;;5036050;28;20328;-76
2022/06/24 05:50:14;;;;;;;20.60;3.72;;;;;;;;;;5017040;28;20470;-77
2022/06/24 05:55:25;;;;;;;17.60;4.05;;;;;;;;;;5036531;28;20446;-79
2022/06/24 05:57:53;;;;;;;21.25;3.88;;;;;;;;;;5014629;28;20105;-78
2022/06/24 06:00:20;;;;;;;19.02;3.63;;;;;;;;;;5034837;28;20077;-75
2022/06/24 06:02:46;;;;;;;25.30;3.72;;;;;;;;;;5015025;28;20432;-78
2022/06/24 06:05:14;;;;;;;19.15;4.22;;;;;;;;;;5016348;28;20109;-77
2022/06/24 06:07:41;;;;;;;21.13;4.25;;;;;;;;;;5034912;28;20139;-77
2022/06/24 06:10:10;;;;;;;19.67;4.03;;;;;;;;;;5027646;28;20505;-80
2022/06/24 06:12:37;;;;;;;15.90;3.72;;;;;;;;;;5014061;28;22085;-81
2022/06/24 06:15:05;;;;;;;19.25;4.35;;;;;;;;;;5013117;28;20461;-77
2022/06/24 06:17:32;;;;;;;17.33;4.10;;;;;;;;;;5030369;28;20033;-80
2022/06/24 06:20:00;;;;;;;15.50;3.83;;;;;;;;;;5026643;28;20037;-82
2022/06/24 06:22:28;;;;;;;16.23;4.00;;;;;;;;;;5031544;28;20059;-80
2022/06/24 06:24:55;;;;;;;16.38;3.58;;;;;;;;;;5012406;28;20029;-71
2022/06/24 06:27:23;;;;;;;20.10;3.80;;;;;;;;;;5009852;28;20198;-74
2022/06/24 06:29:50;;;;;;;17.98;4.15;;;;;;;;;;5030013;28;20036;-75
2022/06/24 06:32:18;;;;;;;16.23;4.00;;;;;;;;;;5018237;28;20322;-74
2022/06/24 06:34:45;;;;;;;20.27;4.40;;;;;;;;;;5014656;28;20324;-74
2022/06/24 06:37:12;;;;;;;18.63;3.92;;;;;;;;;;5026766;28;21087;-74
2022/06/24 06:39:40;;;;;;;16.85;3.72;;;;;;;;;;5027766;28;20032;-75
2022/06/24 06:42:09;;;;;;;16.50;3.85;;;;;;;;;;5026074;28;20041;-74
2022/06/24 06:44:36;;;;;;;18.55;4.13;;;;;;;;;;5018886;28;20110;-75
2022/06/24 06:47:04;;;;;;;16.83;3.88;;;;;;;;;;5018854;28;20036;-75
2022/06/24 06:49:34;;;;;;;14.93;3.35;;;;;;;;;;5021457;28;20117;-74
2022/06/24 06:52:01;;;;;;;15.05;3.55;;;;;;;;;;5008099;28;20555;-73
2022/06/24 06:54:29;;;;;;;22.75;4.30;;;;;;;;;;5030598;28;20033;-74
2022/06/24 06:56:56;;;;;;;18.10;3.90;;;;;;;;;;5029402;28;20039;-74
2022/06/24 06:59:24;;;;;;;17.48;3.90;;;;;;;;;;5015086;28;20033;-74
2022/06/24 07:01:51;;;;;;;17.90;3.60;;;;;;;;;;5020999;28;20398;-74
2022/06/24 07:04:17;;;;;;;15.43;3.63;;;;;;;;;;5015914;28;20102;-74
2022/06/24 07:06:55;;;;;;;17.80;3.65;;;;;;;;;;5034876;28;20324;-74
2022/06/24 07:09:22;;;;;;;16.55;3.42;;;;;;;;;;5016878;28;20169;-74
2022/06/24 07:11:49;;;;;;;17.98;4.05;;;;;;;;;;5021865;28;20466;-74
2022/06/24 07:14:15;;;;;;;14.90;3.50;;;;;;;;;;5009293;28;20096;-74
2022/06/24 07:16:41;;;;;;;20.13;3.80;;;;;;;;;;5012810;28;20071;-74
2022/06/24 07:19:07;;;;;;;20.92;4.30;;;;;;;;;;5025784;28;20499;-74
2022/06/24 07:21:33;;;;;;;16.55;3.80;;;;;;;;;;5020828;28;20438;-75
2022/06/24 07:24:00;;;;;;;18.38;3.83;;;;;;;;;;5015491;28;20111;-75
2022/06/24 07:26:26;;;;;;;18.20;3.72;;;;;;;;;;5024530;28;20119;-73
2022/06/24 07:28:52;;;;;;;18.52;3.72;;;;;;;;;;5013297;28;20028;-74
2022/06/24 07:31:19;;;;;;;16.77;3.40;;;;;;;;;;5040132;28;20377;-74
2022/06/24 07:33:56;;;;;;;20.67;3.70;;;;;;;;;;5007622;28;20043;-73
2022/06/24 07:36:23;;;;;;;20.52;3.75;;;;;;;;;;5010649;28;20034;-78
2022/06/24 07:38:49;;;;;;;19.00;3.78;;;;;;;;;;5013547;28;20036;-79
2022/06/24 07:41:17;;;;;;;18.02;3.92;;;;;;;;;;5017446;28;20505;-79
2022/06/24 07:43:46;;;;;;;17.73;3.58;;;;;;;;;;5027776;28;20663;-71
2022/06/24 07:46:12;;;;;;;15.65;3.47;;;;;;;;;;4998329;28;20048;-72
2022/06/24 07:48:38;;;;;;;19.63;3.42;;;;;;;;;;5020548;28;20186;-72
2022/06/24 07:51:09;;;;;;;19.10;3.97;;;;;;;;;;5014437;28;20037;-71
2022/06/24 07:53:36;;;;;;;16.60;3.80;;;;;;;;;;5017054;28;20716;-70
2022/06/24 07:58:53;;;;;;;17.17;4.18;;;;;;;;;;5021444;28;20681;-73
2022/06/24 08:01:21;;;;;;;18.98;3.60;;;;;;;;;;5006257;28;20035;-71
2022/06/24 08:03:49;;;;;;;19.45;3.55;;;;;;;;;;5001673;28;20372;-72
2022/06/24 08:06:16;;;;;;;18.48;3.85;;;;;;;;;;5017295;28;20033;-72
2022/06/24 08:08:45;;;;;;;18.52;3.40;;;;;;;;;;5004525;28;20028;-72
2022/06/24 08:11:13;;;;;;;17.33;3.47;;;;;;;;;;5022337;28;20083;-73
2022/06/24 08:13:40;;;;;;;17.65;3.65;;;;;;;;;;5018585;28;20109;-71
2022/06/24 08:16:27;;;;;;;17.40;3.35;;;;;;;;;;5020604;28;20045;-71
2022/06/24 08:18:54;;;;;;;16.30;3.33;;;;;;;;;;5016407;28;20352;-71
2022/06/24 08:21:22;;;;;;;15.50;3.45;;;;;;;;;;5007515;28;20374;-73
2022/06/24 08:23:51;;;;;;;20.17;3.85;;;;;;;;;;5020949;28;20616;-73
2022/06/24 08:26:20;;;;;;;16.20;3.10;;;;;;;;;;5020909;28;20467;-72
2022/06/24 08:28:50;;;;;;;20.20;3.53;;;;;;;;;;5002664;28;20057;-72
2022/06/24 08:31:37;;;;;;;16.05;2.75;;;;;;;;;;5021785;28;20040;-71
2022/06/24 08:34:08;;;;;;;20.67;3.58;;;;;;;;;;5009998;28;20049;-72
2022/06/24 08:36:36;;;;;;;18.50;3.28;;;;;;;;;;5041473;28;20035;-72
2022/06/24 08:39:06;;;;;;;17.40;3.10;;;;;;;;;;5040292;28;20021;-74
2022/06/24 08:41:57;;;;;;;17.63;3.17;;;;;;;;;;5048376;28;20441;-74
2022/06/24 08:44:24;;;;;;;16.38;3.00;;;;;;;;;;5043385;28;20513;-75
2022/06/24 08:46:52;;;;;;;17.17;3.20;;;;;;;;;;5022602;28;20032;-74
2022/06/24 08:49:20;;;;;;;17.90;3.33;;;;;;;;;;5050436;28;20029;-78
2022/06/24 08:51:53;;;;;;;17.27;3.35;;;;;;;;;;5033264;28;20044;-80
2022/06/24 08:54:22;;;;;;;18.17;3.40;;;;;;;;;;5033935;28;20034;-80
2022/06/24 08:56:50;;;;;;;18.25;3.78;;;;;;;;;;5031413;28;20453;-80
2022/06/24 08:59:16;;;;;;;15.98;3.38;;;;;;;;;;5033502;28;20030;-79
2022/06/24 09:01:42;;;;;;;20.55;3.22;;;;;;;;;;5056634;28;20023;-80
2022/06/24 09:04:10;;;;;;;13.98;3.10;;;;;;;;;;5026769;28;20110;-79
2022/06/24 09:06:40;;;;;;;17.80;3.67;;;;;;;;;;5030508;28;20095;-80
2022/06/24 09:09:07;;;;;;;16.25;3.33;;;;;;;;;;5027098;28;20036;-78
2022/06/24 09:11:38;;;;;;;17.75;3.42;;;;;;;;;;5032583;28;20037;-79
2022/06/24 09:14:04;;;;;;;17.27;3.15;;;;;;;;;;5034791;28;20084;-81
2022/06/24 09:16:31;;;;;;;19.48;3.30;;;;;;;;;;5035280;28;20029;-79
2022/06/24 09:19:03;;;;;;;18.20;3.42;;;;;;;;;;5034123;28;20035;-79
2022/06/24 09:21:39;;;;;;;15.23;3.03;;;;;;;;;;5035642;28;20044;-79
2022/06/24 09:24:05;;;;;;;;;;;;;;;;;;5048850;28;20031;-79
2022/06/24 09:26:31;;;;;;;22.80;3.88;;;;;;;;;;5055891;28;19987;-79
2022/06/24 09:29:00;;;;;;;17.80;3.70;;;;;;;;;;5051375;28;20039;-79
2022/06/24 09:31:27;;;;;;;16.98;3.17;;;;;;;;;;5046660;28;20483;-79
2022/06/24 09:33:54;;;;;;;18.98;3.67;;;;;;;;;;5038726;28;20051;-79
2022/06/24 09:36:27;;;;;;;19.30;3.42;;;;;;;;;;5038923;28;20119;-79
2022/06/24 09:38:54;;;;;;;23.45;3.67;;;;;;;;;;5035467;28;20031;-79
2022/06/24 09:41:20;;;;;;;15.70;3.33;;;;;;;;;;5035750;28;20032;-79
2022/06/24 09:43:46;;;;;;;16.27;3.20;;;;;;;;;;5050594;28;20068;-78
2022/06/24 09:46:22;;;;;;;16.60;3.65;;;;;;;;;;5044373;28;20055;-80
2022/06/24 09:48:50;;;;;;;;;;;;;;;;;;5051939;28;20032;-79
2022/06/24 09:51:17;;;;;;;21.75;3.90;;;;;;;;;;5038416;28;19931;-78
2022/06/24 09:53:45;;;;;;;14.88;3.03;;;;;;;;;;5055873;28;20048;-79
2022/06/24 09:56:13;;;;;;;17.20;3.35;;;;;;;;;;5047475;28;20464;-79
2022/06/24 09:58:43;;;;;;;16.85;3.17;;;;;;;;;;5012637;28;20035;-79
2022/06/24 10:01:11;;;;;;;18.42;3.55;;;;;;;;;;5025699;28;20048;-79
2022/06/24 10:03:39;;;;;;;17.33;3.38;;;;;;;;;;5033822;28;20032;-78
2022/06/24 10:06:10;;;;;;;14.85;3.00;;;;;;;;;;5038522;28;20111;-79
2022/06/24 10:08:38;;;;;;;19.33;3.72;;;;;;;;;;5028443;28;20025;-79
2022/06/24 10:11:13;;;;;;;15.95;3.70;;;;;;;;;;5030603;28;20040;-78
2022/06/24 10:13:39;;;;;;;18.23;3.38;;;;;;;;;;5042898;28;20104;-78
2022/06/24 10:16:07;;;;;;;17.10;3.17;;;;;;;;;;5028255;28;20041;-79
2022/06/24 10:18:38;;;;;;;17.75;3.05;;;;;;;;;;5030437;28;20471;-79
2022/06/24 10:21:07;;;;;;;18.00;3.13;;;;;;;;;;5037468;28;20453;-79
2022/06/24 10:23:52;;;;;;;18.05;3.60;;;;;;;;;;5048009;28;20068;-78
2022/06/24 10:26:33;;;;;;;17.90;3.67;;;;;;;;;;5051508;28;20360;-79
2022/06/24 10:29:05;;;;;;;16.55;3.05;;;;;;;;;;5024219;28;20430;-78
2022/06/24 10:32:05;;;;;;;19.48;3.28;;;;;;;;;;5039888;28;20137;-79
2022/06/24 10:34:36;;;;;;;22.15;3.80;;;;;;;;;;5030670;28;20111;-79
2022/06/24 10:37:03;;;;;;;20.42;3.20;;;;;;;;;;4975932;28;20152;-74
2022/06/24 10:39:33;;;;;;;19.95;3.50;;;;;;;;;;4978309;28;20033;-74
2022/06/24 10:42:07;;;;;;;17.90;3.65;;;;;;;;;;4974483;28;20632;-74
2022/06/24 10:44:42;;;;;;;18.90;3.55;;;;;;;;;;4964061;28;20034;-75
2022/06/24 10:47:10;;;;;;;19.73;3.70;;;;;;;;;;4961523;28;20037;-74
2022/06/24 10:49:55;;;;;;;19.35;4.30;;;;;;;;;;4966444;28;20076;-74
2022/06/24 10:52:45;;;;;;;16.80;3.20;;;;;;;;;;4960812;28;20555;-74
2022/06/24 10:55:30;;;;;;;14.70;3.20;;;;;;;;;;4973966;28;20115;-74
2022/06/24 10:58:00;;;;;;;14.15;2.85;;;;;;;;;;4976186;28;20033;-74
2022/06/24 11:00:54;;;;;;;17.48;3.30;;;;;;;;;;4983157;28;20061;-75
2022/06/24 11:03:22;;;;;;;17.17;3.33;;;;;;;;;;4962055;28;20064;-76
2022/06/24 11:05:48;;;;;;;17.63;3.40;;;;;;;;;;4977340;28;20026;-74
2022/06/24 11:08:19;;;;;;;15.18;3.38;;;;;;;;;;4977358;28;20030;-75
2022/06/24 11:10:47;;;;;;;19.08;3.80;;;;;;;;;;4977678;28;20065;-72
2022/06/24 11:13:13;;;;;;;13.90;3.25;;;;;;;;;;4934466;28;20034;-73
2022/06/24 11:15:51;;;;;;;12.43;2.70;;;;;;;;;;4946533;28;20308;-71
2022/06/24 11:18:19;;;;;;;15.73;3.20;;;;;;;;;;4962333;28;20157;-73
2022/06/24 11:20:49;;;;;;;14.27;3.13;;;;;;;;;;4977124;28;20181;-72
2022/06/24 11:23:20;;;;;;;16.58;3.20;;;;;;;;;;4944276;28;20033;-72
2022/06/24 11:25:51;;;;;;;16.80;3.22;;;;;;;;;;4934184;28;20040;-71
2022/06/24 11:28:23;;;;;;;17.25;3.55;;;;;;;;;;4984494;28;20040;-73
2022/06/24 11:30:50;;;;;;;15.80;3.10;;;;;;;;;;5008090;28;20479;-71
2022/06/24 11:33:16;;;;;;;14.63;3.22;;;;;;;;;;5025887;28;20087;-72
2022/06/24 11:35:45;;;;;;;17.35;3.42;;;;;;;;;;5024867;28;20471;-73
2022/06/24 11:38:11;;;;;;;15.68;3.50;;;;;;;;;;5024601;28;20545;-73
2022/06/24 11:40:38;;;;;;;15.75;3.00;;;;;;;;;;5021743;28;20052;-73
2022/06/24 11:43:05;;;;;;;16.23;3.10;;;;;;;;;;5006684;28;20031;-73
2022/06/24 11:45:37;;;;;;;15.88;3.13;;;;;;;;;;5009757;28;20531;-72
2022/06/24 11:48:07;;;;;;;15.05;3.40;;;;;;;;;;5013916;28;20098;-77
2022/06/24 11:50:34;;;;;;;17.58;3.55;;;;;;;;;;4987691;28;20775;-75
2022/06/24 11:53:01;;;;;;;16.73;3.45;;;;;;;;;;4951781;28;20028;-75
2022/06/24 11:55:42;;;;;;;17.83;3.42;;;;;;;;;;4947713;28;20072;-79
2022/06/24 11:58:30;;;;;;;17.17;3.70;;;;;;;;;;4969938;28;20048;-75
2022/06/24 12:00:59;;;;;;;14.88;3.03;;;;;;;;;;4954151;28;21219;-73
2022/06/24 12:03:28;;;;;;;16.88;3.92;;;;;;;;;;4951427;28;20656;-70
2022/06/24 12:05:58;;;;;;;15.50;3.42;;;;;;;;;;4949671;28;20032;-73
2022/06/24 12:08:26;;;;;;;15.23;3.53;;;;;;;;;;4971450;28;20891;-73
2022/06/24 12:10:55;;;;;;;15.40;3.33;;;;;;;;;;4946255;28;20087;-79
2022/06/24 12:13:39;;;;;;;15.60;2.95;;;;;;;;;;4959509;28;20616;-73
2022/06/24 12:16:11;;;;;;;14.75;2.90;;;;;;;;;;4950219;28;20044;-72
2022/06/24 12:18:41;;;;;;;13.60;2.92;;;;;;;;;;4984440;28;21082;-73
2022/06/24 12:21:10;;;;;;;16.17;3.55;;;;;;;;;;4962140;28;20064;-72
2022/06/24 12:23:44;;;;;;;14.73;3.10;;;;;;;;;;4953851;28;20028;-74
2022/06/24 12:26:16;;;;;;;14.30;2.90;;;;;;;;;;4939980;28;21504;-73
2022/06/24 12:28:46;;;;;;;13.07;3.10;;;;;;;;;;5009253;28;20422;-72
2022/06/24 12:31:14;;;;;;;15.25;3.30;;;;;;;;;;5009316;28;20899;-72
2022/06/24 12:33:54;;;;;;;16.83;3.00;;;;;;;;;;5027723;28;20043;-74
2022/06/24 12:36:22;;;;;;;14.27;2.83;;;;;;;;;;5005494;28;20025;-72
2022/06/24 12:39:06;;;;;;;15.70;3.30;;;;;;;;;;5000344;28;20044;-73
2022/06/24 12:41:53;;;;;;;15.07;3.22;;;;;;;;;;5004828;28;20029;-71
2022/06/24 12:44:21;;;;;;;15.15;3.03;;;;;;;;;;5010067;28;20039;-74
2022/06/24 12:52:38;;;;;;;12.35;2.83;;;;;;;;;;5008862;28;20474;-72
2022/06/24 12:55:13;;;;;;;12.07;3.00;;;;;;;;;;5015910;28;20041;-73
2022/06/24 12:57:39;;;;;;;17.40;3.20;;;;;;;;;;5024993;28;20415;-73
2022/06/24 13:00:08;;;;;;;16.98;3.50;;;;;;;;;;5020878;28;20098;-73
2022/06/24 13:02:35;;;;;;;16.23;3.47;;;;;;;;;;5009195;28;20064;-72
2022/06/24 13:05:04;;;;;;;14.45;3.17;;;;;;;;;;5022571;28;20369;-71
2022/06/24 13:07:30;;;;;;;15.88;3.10;;;;;;;;;;5007465;28;20029;-72
2022/06/24 13:09:56;;;;;;;14.82;3.20;;;;;;;;;;5022119;28;20739;-72
2022/06/24 13:12:22;;;;;;;14.73;3.60;;;;;;;;;;5023931;28;20036;-71
2022/06/24 13:14:48;;;;;;;16.42;3.28;;;;;;;;;;5026209;28;20096;-73
2022/06/24 13:17:17;;;;;;;12.73;3.00;;;;;;;;;;5005164;28;20029;-72
2022/06/24 13:19:44;;;;;;;12.98;2.88;;;;;;;;;;5005065;28;20063;-73
2022/06/24 13:22:10;;;;;;;12.60;2.65;;;;;;;;;;5022495;28;20024;-72
2022/06/24 13:24:36;;;;;;;14.85;3.35;;;;;;;;;;5008886;28;20055;-73
2022/06/24 13:27:05;;;;;;;14.15;2.92;;;;;;;;;;5003849;28;20040;-74
2022/06/24 13:29:32;;;;;;;13.98;3.15;;;;;;;;;;5026635;28;20123;-73
2022/06/24 13:31:58;;;;;;;11.88;2.85;;;;;;;;;;5022099;28;20094;-73
2022/06/24 13:34:25;;;;;;;12.15;2.95;;;;;;;;;;5005497;28;20044;-73
2022/06/24 13:36:52;;;;;;;13.93;3.03;;;;;;;;;;5004168;28;20399;-74
2022/06/24 13:39:18;;;;;;;14.40;3.28;;;;;;;;;;5008023;28;20428;-72
2022/06/24 13:41:44;;;;;;;12.90;2.90;;;;;;;;;;5024836;28;20729;-70
2022/06/24 13:44:11;;;;;;;15.90;3.72;;;;;;;;;;5006483;28;21030;-73
2022/06/24 13:46:37;;;;;;;13.15;3.30;;;;;;;;;;5028319;28;20029;-72
2022/06/24 13:49:03;;;;;;;13.10;2.72;;;;;;;;;;5026152;28;20048;-74
2022/06/24 13:51:34;;;;;;;13.60;3.22;;;;;;;;;;5010556;28;20085;-72
2022/06/24 13:54:00;;;;;;;16.92;3.35;;;;;;;;;;5024593;28;20126;-74
2022/06/24 13:56:28;;;;;;;13.55;2.83;;;;;;;;;;5011281;28;20364;-74
2022/06/24 13:58:57;;;;;;;12.52;2.92;;;;;;;;;;5018461;28;20025;-74
2022/06/24 14:01:23;;;;;;;16.25;3.00;;;;;;;;;;5028900;28;20127;-73
2022/06/24 14:03:51;;;;;;;16.63;2.95;;;;;;;;;;5012134;28;20533;-73
2022/06/24 14:06:19;;;;;;;13.93;3.13;;;;;;;;;;5029171;28;20043;-72
2022/06/24 14:08:46;;;;;;;13.25;2.75;;;;;;;;;;5011323;28;20070;-72
2022/06/24 14:11:14;;;;;;;12.23;3.00;;;;;;;;;;5026057;28;20032;-73
2022/06/24 14:13:41;;;;;;;11.00;2.65;;;;;;;;;;5007990;28;20581;-72
2022/06/24 14:16:09;;;;;;;13.43;2.63;;;;;;;;;;5004159;28;20022;-73
2022/06/24 14:18:36;;;;;;;13.30;3.15;;;;;;;;;;5025876;28;20086;-72
2022/06/24 14:21:04;;;;;;;14.10;3.10;;;;;;;;;;5009559;28;20589;-71
2022/06/24 14:26:20;;;;;;;12.30;2.63;;;;;;;;;;5025600;28;20059;-73
2022/06/24 14:28:51;;;;;;;12.85;2.72;;;;;;;;;;5027313;28;20048;-71
2022/06/24 14:31:19;;;;;;;13.43;2.60;;;;;;;;;;5023237;28;20028;-74
2022/06/24 14:33:48;;;;;;;12.85;2.72;;;;;;;;;;5027845;28;20025;-72
2022/06/24 14:36:16;;;;;;;10.48;2.35;;;;;;;;;;5026863;28;20028;-72
2022/06/24 14:41:29;;;;;;;12.38;2.50;;;;;;;;;;5028880;28;20386;-73
2022/06/24 14:43:56;;;;;;;11.52;2.35;;;;;;;;;;5022014;28;20177;-71
2022/06/24 14:46:24;;;;;;;11.27;2.42;;;;;;;;;;5028777;28;20024;-73
2022/06/24 14:48:51;;;;;;;13.40;2.78;;;;;;;;;;5032869;28;20116;-73
2022/06/24 14:51:18;;;;;;;11.13;2.20;;;;;;;;;;5034144;28;20031;-74
2022/06/24 14:53:47;;;;;;;14.30;2.70;;;;;;;;;;5014363;28;20055;-71
2022/06/24 14:56:14;;;;;;;10.35;2.00;;;;;;;;;;5028120;28;20021;-73
2022/06/24 14:58:41;;;;;;;12.20;2.63;;;;;;;;;;5025123;28;20105;-72
2022/06/24 15:01:07;;;;;;;10.88;2.42;;;;;;;;;;5028300;28;20118;-73
2022/06/24 15:03:33;;;;;;;11.50;2.50;;;;;;;;;;5011727;28;20037;-75